NEODyS-2

Near Earth Objects - Dynamic Site
NEODyS ∴ Observatories ∴ Site 691 ∴ Obs & residuals
Contact »
691  ▹ 
OBSERVATIONS AND RESIDUALS

691-Steward Observatory, Kitt Peak-Spacewatch

Detections | Residuals | Detections & Residuals

[1-200] [201-400] [401-600] [601-800] [801-1000] [1001-1200] [1201-1400] [1401-1600] [1601-1800] [1801-2000] [2001-2200] [2201-2400] [2401-2600] [2601-2800] [2801-3000] [3001-3200] [3201-3400] [3401-3600] [3601-3800] [3801-4000] [4001-4200] [4201-4400] [4401-4600] [4601-4800] [4801-5000] [5001-5200] [5201-5400] [5401-5600] [5601-5800] [5801-6000] [6001-6200] [6201-6400] [6401-6600] [6601-6800] [6801-7000] [7001-7200] [7201-7400] [7401-7600] [7601-7800] [7801-8000] [8001-8200] [8201-8400] [8401-8600] [8601-8800] [8801-9000] [9001-9200] [9201-9400] [9401-9600] [9601-9800] [9801-10000] [10001-10200] [10201-10400] [10401-10600] [10601-10800] [10801-11000] [11001-11200] [11201-11400] [11401-11600] [11601-11800] [11801-12000] [12001-12200] [12201-12400] [12401-12600] [12601-12800] [12801-13000] [13001-13200] [13201-13400] [13401-13600] [13601-13800] [13801-14000] [14001-14200] [14201-14400] [14401-14600] [14601-14800] [14801-15000] [15001-15200] [15201-15400] [15401-15600] [15601-15800] [15801-16000] [16001-16200] [16201-16400] [16401-16600] [16601-16800] [16801-17000] [17001-17200] [17201-17400] [17401-17600] [17601-17800] [17801-18000] [18001-18200] [18201-18400] [18401-18600] [18601-18800] [18801-19000] [19001-19200] [19201-19400] [19401-19600] [19601-19800] [19801-20000] [20001-20200] [20201-20400] [20401-20600] [20601-20800] [20801-21000] [21001-21200] [21201-21400] [21401-21600] [21601-21800] [21801-22000] [22001-22200] [22201-22400] [22401-22600] [22601-22800] [22801-23000] [23001-23200] [23201-23400] [23401-23600] [23601-23800] [23801-24000] [24001-24200] [24201-24400] [24401-24600] [24601-24800] [24801-25000] [25001-25200] [25201-25400] [25401-25600] [25601-25800] [25801-26000] [26001-26200] [26201-26400] [26401-26600] [26601-26800] [26801-27000] [27001-27200] [27201-27400] [27401-27600] [27601-27800] [27801-28000] [28001-28200] [28201-28400] [28401-28600] [28601-28800] [28801-29000] [29001-29200] [29201-29400] [29401-29600] [29601-29800] [29801-30000] [30001-30200] [30201-30400] [30401-30600] [30601-30800] [30801-31000] [31001-31200] [31201-31400] [31401-31600] [31601-31800] [31801-32000] [32001-32200] [32201-32400] [32401-32600] [32601-32800] [32801-33000] [33001-33200] [33201-33400] [33401-33600] [33601-33800] [33801-34000] [34001-34200] [34201-34400] [34401-34600] [34601-34800] [34801-35000] [35001-35200] [35201-35400] [35401-35600] [35601-35800] [35801-36000] [36001-36200] [36201-36400] [36401-36600] [36601-36800] [36801-37000] [37001-37200] [37201-37400] [37401-37600] [37601-37800] [37801-38000] [38001-38200] [38201-38400] [38401-38600] [38601-38800] [38801-39000] [39001-39200] [39201-39400] [39401-39600] [39601-39800] [39801-40000] [40001-40200] [40201-40400] [40401-40600] [40601-40800] [40801-41000] [41001-41200] [41201-41400] [41401-41600] [41601-41800] [41801-42000] [42001-42200] [42201-42400] [42401-42600] [42601-42800] [42801-43000] [43001-43200] [43201-43400] [43401-43600] [43601-43800] [43801-44000] [44001-44200] [44201-44400] [44401-44600] [44601-44800] [44801-45000] [45001-45200] [45201-45400] [45401-45600] [45601-45800] [45801-46000] [46001-46200] [46201-46400] [46401-46600] [46601-46800] [46801-47000] [47001-47200] [47201-47400] [47401-47600] [47601-47800] [47801-48000] [48001-48200] [48201-48400] [48401-48600] [48601-48800] [48801-49000] [49001-49200] [49201-49400] [49401-49600] [49601-49800] [49801-50000] [50001-50200] [50201-50388]

Designation T Tech N Date Right Ascension Declination Apparent Magnitude Star Catalog Site code χ Used A Used M
yr-mo-day precision hr:min:sec precision rms F bias residual deg min sec precision rms F bias residual mag/col rms residual
2004TY16 O C 2010-12-03.52741 1.000E-05 12:30:26.470 1.500E-01 0.500 F 0.180 -0.380 -01° 43' 58.20" 1.000E-01 0.500 F 0.162 0.057 19.9 V 0.70 0.30 o 691 0.77 Yes Yes
2004TY16 O C 2010-12-03.54002 1.000E-05 12:30:28.980 1.500E-01 0.500 F 0.180 -0.100 -01° 44' 20.30" 1.000E-01 0.500 F 0.162 0.069 20.0 V 0.70 0.40 o 691 0.25 Yes Yes
2006SK198 O C 2010-12-05.33158 1.000E-05 07:05:15.350 1.500E-01 0.500 F -0.112 -0.141 +19° 16' 43.00" 1.000E-01 0.500 F 0.166 0.133 o 691 0.39 Yes No
2006SK198 O C 2010-12-05.34931 1.000E-05 07:05:14.420 1.500E-01 0.500 F -0.112 -0.039 +19° 16' 41.40" 1.000E-01 0.500 F 0.166 0.078 o 691 0.17 Yes No
2006SK198 O C 2010-12-05.36705 1.000E-05 07:05:13.470 1.500E-01 0.500 F -0.112 -0.190 +19° 16' 39.70" 1.000E-01 0.500 F 0.166 -0.063 o 691 0.41 Yes No
2004BW1 O C 2010-12-05.39238 1.000E-05 07:47:30.230 1.500E-01 0.500 F -0.060 -0.117 +23° 21' 08.50" 1.000E-01 0.500 F 0.215 0.118 o 691 0.34 Yes No
2004BW1 O C 2010-12-05.41013 1.000E-05 07:47:29.080 1.500E-01 0.500 F -0.060 0.077 +23° 21' 17.90" 1.000E-01 0.500 F 0.215 -0.088 o 691 0.24 Yes No
2004BW1 O C 2010-12-05.42789 1.000E-05 07:47:27.900 1.500E-01 0.500 F -0.060 -0.100 +23° 21' 27.60" 1.000E-01 0.500 F 0.215 0.059 o 691 0.23 Yes No
2007EM88 O C 2010-12-06.30590 1.000E-05 07:23:08.300 1.500E-01 0.500 F -0.022 -0.143 +22° 59' 38.30" 1.000E-01 0.500 F 0.232 0.042 o 691 0.30 Yes No
2007EM88 O C 2010-12-06.32370 1.000E-05 07:23:08.410 1.500E-01 0.500 F -0.022 -0.082 +22° 59' 52.10" 1.000E-01 0.500 F 0.232 -0.011 o 691 0.17 Yes No
2007EM88 O C 2010-12-06.34149 1.000E-05 07:23:08.500 1.500E-01 0.500 F -0.022 -0.112 +23° 00' 05.70" 1.000E-01 0.500 F 0.232 -0.153 o 691 0.38 Yes No
2010XB24 O C 2010-12-08.11494 1.000E-05 04:39:44.780 1.500E-01 0.500 F -0.071 -0.173 +25° 54' 09.10" 1.000E-01 0.500 F 0.202 -0.127 19.9 V 0.70 -0.07 o 691 0.44 Yes Yes
2010XB24 O C 2010-12-08.13856 1.000E-05 04:39:39.720 1.500E-01 0.500 F -0.071 -0.299 +25° 53' 44.00" 1.000E-01 0.500 F 0.202 0.089 19.9 V 0.70 -0.07 o 691 0.64 Yes Yes
2010XB24 O C 2010-12-08.15385 1.000E-05 04:39:36.450 1.500E-01 0.500 F -0.071 -0.015 +25° 53' 27.50" 1.000E-01 0.500 F 0.202 0.076 19.8 V 0.70 -0.17 o 691 0.16 Yes Yes
2003WX87 O C 2010-12-08.46162 1.000E-05 11:17:18.980 1.500E-01 0.500 F 0.176 -0.592 +11° 58' 53.20" 1.000E-01 0.500 F 0.155 1.067 19.8 V 0.70 -0.62 o 691 2.45 Yes Yes
2003WX87 O C 2010-12-08.48027 1.000E-05 11:17:21.250 1.500E-01 0.500 F 0.176 -0.350 +11° 58' 56.30" 1.000E-01 0.500 F 0.155 0.051 20.6 V 0.70 0.18 o 691 0.71 Yes Yes
2003WX87 O C 2010-12-08.49909 1.000E-05 11:17:23.520 1.500E-01 0.500 F 0.176 -0.340 +11° 59' 00.60" 1.000E-01 0.500 F 0.155 0.212 20.6 V 0.70 0.18 o 691 0.81 Yes Yes
2010XG25 O C 2010-12-09.15916 1.000E-05 04:41:25.720 1.500E-01 0.500 F -0.150 -0.191 +21° 18' 24.30" 1.000E-01 0.500 F 0.198 -0.553 20.1 V 0.70 0.27 o 691 1.22 Yes Yes
2010XG25 O C 2010-12-09.17696 1.000E-05 04:41:35.850 1.500E-01 0.500 F -0.150 -0.914 +21° 16' 26.40" 1.000E-01 0.500 F 0.198 0.874 20.2 V 0.70 0.37 o 691 2.67 Yes Yes
2010XG25 O C 2010-12-09.19476 1.000E-05 04:41:46.040 1.500E-01 0.500 F -0.150 -0.055 +21° 14' 25.40" 1.000E-01 0.500 F 0.198 -0.328 20.2 V 0.70 0.37 o 691 0.69 Yes Yes
2004EW9 O C 2010-12-09.39170 1.000E-05 07:50:31.680 1.500E-01 0.500 F -0.055 -1.027 +22° 20' 13.40" 1.000E-01 0.500 F 0.211 -0.080 20.5 V 0.70 -0.53 o 691 2.06 Yes Yes
2004EW9 O C 2010-12-09.40949 1.000E-05 07:50:30.640 1.500E-01 0.500 F -0.055 -1.529 +22° 20' 14.30" 1.000E-01 0.500 F 0.211 -0.100 20.2 V 0.70 -0.83 o 691 3.07 Yes Yes
2004EW9 O C 2010-12-09.45462 1.000E-05 07:50:28.170 1.500E-01 0.500 F -0.055 -0.433 +22° 20' 16.60" 1.000E-01 0.500 F 0.211 -0.056 20.7 V 0.70 -0.32 o 691 0.87 Yes Yes
1999GJ4 O C 2010-12-10.51370 1.000E-05 12:27:20.670 1.500E-01 0.500 F 0.180 -0.112 -01° 23' 06.60" 1.000E-01 0.500 F 0.163 0.005 o 691 0.22 Yes No
2009KD5 O C 2010-12-10.52458 1.000E-05 12:51:55.660 1.500E-01 0.500 F 0.171 0.901 -02° 20' 29.00" 1.000E-01 0.500 F 0.145 0.446 o 691 2.01 Yes No
1999GJ4 O C 2010-12-10.52981 1.000E-05 12:27:21.470 1.500E-01 0.500 F 0.180 -0.299 -01° 23' 01.50" 1.000E-01 0.500 F 0.163 -0.001 o 691 0.60 Yes No
2009KD5 O C 2010-12-10.53723 1.000E-05 12:51:57.740 1.500E-01 0.500 F 0.171 -0.497 -02° 20' 21.60" 1.000E-01 0.500 F 0.145 0.128 o 691 1.03 Yes No
1999GJ4 O C 2010-12-10.54247 1.000E-05 12:27:22.100 1.500E-01 0.500 F 0.180 -0.406 -01° 22' 57.40" 1.000E-01 0.500 F 0.163 0.083 o 691 0.83 Yes No
2009KD5 O C 2010-12-10.54988 1.000E-05 12:51:59.930 1.500E-01 0.500 F 0.171 -0.202 -02° 20' 14.20" 1.000E-01 0.500 F 0.145 -0.191 o 691 0.56 Yes No
2004EW9 O C 2010-12-13.40892 1.000E-05 07:46:38.110 1.500E-01 0.500 F -0.072 -0.249 +22° 23' 51.80" 1.000E-01 0.500 F 0.232 -0.065 o 691 0.51 Yes No
2004EW9 O C 2010-12-13.42672 1.000E-05 07:46:36.990 1.500E-01 0.500 F -0.072 -0.182 +22° 23' 52.80" 1.000E-01 0.500 F 0.232 -0.079 o 691 0.40 Yes No
2004EW9 O C 2010-12-13.44453 1.000E-05 07:46:35.840 1.500E-01 0.500 F -0.072 -0.521 +22° 23' 54.00" 1.000E-01 0.500 F 0.232 0.124 o 691 1.07 Yes No
2010XJ O C 2010-12-14.09703 1.000E-05 02:14:14.540 1.500E-01 0.750 F -0.114 -0.238 +42° 52' 07.40" 1.000E-01 0.750 F 0.202 -0.172 20.8 V 0.70 -0.01 o 691 0.40 Yes Yes
2010XJ O C 2010-12-14.09992 1.000E-05 02:14:14.060 1.500E-01 0.750 F -0.114 -0.036 +42° 52' 08.80" 1.000E-01 0.750 F 0.202 -0.177 20.6 V 0.70 -0.21 o 691 0.24 Yes Yes
2010XJ O C 2010-12-14.10434 1.000E-05 02:14:13.280 1.500E-01 0.750 F -0.114 -0.228 +42° 52' 10.90" 1.000E-01 0.750 F 0.202 -0.222 21.1 V 0.70 0.29 o 691 0.43 Yes Yes
2010XJ O C 2010-12-14.13026 1.000E-05 02:14:08.860 1.500E-01 0.750 F -0.114 0.397 +42° 52' 23.40" 1.000E-01 0.750 F 0.202 -0.177 20.8 V 0.70 -0.01 o 691 0.59 Yes Yes
2010XJ O C 2010-12-14.13452 1.000E-05 02:14:08.050 1.500E-01 0.750 F -0.114 -0.411 +42° 52' 25.40" 1.000E-01 0.750 F 0.202 -0.203 20.9 V 0.70 0.09 o 691 0.62 Yes Yes
2010XJ O C 2010-12-14.14012 1.000E-05 02:14:07.130 1.500E-01 0.750 F -0.114 0.120 +42° 52' 28.50" 1.000E-01 0.750 F 0.202 0.243 21.0 V 0.70 0.19 o 691 0.37 Yes Yes
2010XJ O C 2010-12-14.15789 1.000E-05 02:14:04.020 1.500E-01 0.750 F -0.114 -0.279 +42° 52' 36.00" 1.000E-01 0.750 F 0.202 -0.611 20.8 V 0.70 -0.01 o 691 0.91 Yes Yes
2010XJ O C 2010-12-14.16240 1.000E-05 02:14:03.240 1.500E-01 0.750 F -0.114 -0.277 +42° 52' 38.70" 1.000E-01 0.750 F 0.202 -0.014 20.9 V 0.70 0.09 o 691 0.37 Yes Yes
2010XJ O C 2010-12-14.16692 1.000E-05 02:14:02.470 1.500E-01 0.750 F -0.114 -0.146 +42° 52' 40.80" 1.000E-01 0.750 F 0.202 -0.015 20.7 V 0.70 -0.11 o 691 0.20 Yes Yes
2000AZ93 O C 2010-12-14.42431 1.000E-05 11:43:26.560 1.500E-01 0.500 F 0.101 0.230 +11° 17' 19.70" 1.000E-01 0.500 F 0.246 0.336 19.6 V 0.70 0.08 o 691 0.82 Yes Yes
2000AZ93 O C 2010-12-14.44286 1.000E-05 11:43:24.350 1.500E-01 0.500 F 0.101 -0.224 +11° 16' 46.80" 1.000E-01 0.500 F 0.246 0.219 19.5 V 0.70 -0.02 o 691 0.63 Yes Yes
2000AZ93 O C 2010-12-14.46141 1.000E-05 11:43:22.150 1.500E-01 0.500 F 0.101 0.048 +11° 16' 14.00" 1.000E-01 0.500 F 0.246 0.342 19.5 V 0.70 -0.02 o 691 0.69 Yes Yes
2010UB8 O C H 2010-12-14.53695 1.000E-05 09:57:42.420 1.500E-01 0.500 F -0.012 0.295 +48° 57' 42.10" 1.000E-01 0.500 F 0.317 -0.638 o 691 1.46 Yes No
2010UB8 O C H 2010-12-14.53986 1.000E-05 09:57:42.570 1.500E-01 0.500 F -0.012 0.538 +48° 57' 49.60" 1.000E-01 0.500 F 0.317 -0.919 o 691 2.22 Yes No
2010UB8 O C H 2010-12-14.54274 1.000E-05 09:57:42.710 1.500E-01 0.500 F -0.012 0.695 +48° 57' 57.50" 1.000E-01 0.500 F 0.317 -0.717 o 691 2.09 Yes No
2010XJ O C 2010-12-15.09350 1.000E-05 02:11:30.210 1.500E-01 0.612 F -0.121 0.349 +42° 59' 38.10" 1.000E-01 0.612 F 0.196 -0.460 21.0 V 0.70 0.18 o 691 0.96 Yes Yes
2010XJ O C 2010-12-15.10088 1.000E-05 02:11:28.940 1.500E-01 0.612 F -0.121 0.134 +42° 59' 41.80" 1.000E-01 0.612 F 0.196 -0.184 21.2 V 0.70 0.38 o 691 0.38 Yes Yes
2010XJ O C 2010-12-15.10870 1.000E-05 02:11:27.540 1.500E-01 0.612 F -0.121 -0.680 +42° 59' 45.80" 1.000E-01 0.612 F 0.196 0.207 20.5 V 0.70 -0.32 o 691 1.18 Yes Yes
2010XJ O C 2010-12-15.12755 1.000E-05 02:11:24.480 1.500E-01 0.612 F -0.121 0.843 +42° 59' 54.10" 1.000E-01 0.612 F 0.196 -0.112 20.5 V 0.70 -0.32 o 691 1.41 Yes Yes
2010XJ O C 2010-12-15.13560 1.000E-05 02:11:22.990 1.500E-01 0.612 F -0.121 -0.507 +42° 59' 58.20" 1.000E-01 0.612 F 0.196 0.343 21.1 V 0.70 0.28 o 691 1.02 Yes Yes
2010XJ O C 2010-12-15.14313 1.000E-05 02:11:21.720 1.500E-01 0.612 F -0.121 -0.408 +43° 00' 01.30" 1.000E-01 0.612 F 0.196 0.052 20.9 V 0.70 0.08 o 691 0.68 Yes Yes
2010XZ67 O C 2010-12-15.17908 1.000E-05 23:17:18.780 1.500E-01 0.500 F -0.126 -0.032 +18° 21' 03.80" 1.000E-01 0.500 F 0.329 -0.060 19.9 V 0.70 -0.13 o 691 0.13 Yes Yes
2010XZ67 O C 2010-12-15.18336 1.000E-05 23:17:19.570 1.500E-01 0.500 F -0.126 -0.311 +18° 21' 01.70" 1.000E-01 0.500 F 0.329 -0.058 19.7 V 0.70 -0.33 o 691 0.63 Yes Yes
2010XZ67 O C 2010-12-15.18807 1.000E-05 23:17:20.470 1.500E-01 0.500 F -0.126 -0.197 +18° 20' 59.20" 1.000E-01 0.500 F 0.329 -0.242 19.9 V 0.70 -0.13 o 691 0.62 Yes Yes
2010XM69 O C 2010-12-15.20045 1.000E-05 02:57:51.030 1.500E-01 0.500 F -0.158 -0.249 +26° 40' 19.50" 1.000E-01 0.500 F 0.246 0.002 20.3 V 0.70 -0.28 o 691 0.51 Yes Yes
1999XR35 O C 2010-12-15.20045 1.000E-05 02:56:09.990 1.500E-01 0.500 F -0.182 -0.167 +26° 13' 26.90" 1.000E-01 0.500 F 0.265 0.070 19.0 V 0.70 0.36 o 691 0.37 Yes Yes
2010XM69 O C 2010-12-15.20457 1.000E-05 02:57:50.280 1.500E-01 0.500 F -0.158 -0.031 +26° 40' 23.00" 1.000E-01 0.500 F 0.246 0.117 20.3 V 0.70 -0.28 o 691 0.25 Yes Yes
1999XR35 O C 2010-12-15.20457 1.000E-05 02:56:09.470 1.500E-01 0.500 F -0.182 -0.017 +26° 13' 31.70" 1.000E-01 0.500 F 0.265 -0.096 19.0 V 0.70 0.36 o 691 0.20 Yes Yes
2010XM69 O C 2010-12-15.20926 1.000E-05 02:57:49.410 1.500E-01 0.500 F -0.158 -0.004 +26° 40' 26.70" 1.000E-01 0.500 F 0.246 -0.032 20.3 V 0.70 -0.28 o 691 0.07 Yes Yes
1999XR35 O C 2010-12-15.20926 1.000E-05 02:56:08.840 1.500E-01 0.500 F -0.182 -0.359 +26° 13' 37.40" 1.000E-01 0.500 F 0.265 -0.044 19.0 V 0.70 0.36 o 691 0.73 Yes Yes
2010XC24 O C 2010-12-15.27133 1.000E-05 08:13:44.340 1.500E-01 0.500 F 0.063 -0.194 +11° 06' 51.20" 1.000E-01 0.500 F 0.046 -0.118 19.2 V 0.70 0.07 o 691 0.46 Yes Yes
2010XC24 O C 2010-12-15.27454 1.000E-05 08:13:43.590 1.500E-01 0.500 F 0.063 -0.358 +11° 06' 31.20" 1.000E-01 0.500 F 0.046 0.790 19.1 V 0.70 -0.03 o 691 1.76 Yes Yes
2010XC24 O C 2010-12-15.27803 1.000E-05 08:13:42.810 1.500E-01 0.500 F 0.063 -0.004 +11° 06' 07.80" 1.000E-01 0.500 F 0.046 0.125 19.5 V 0.70 0.37 o 691 0.25 Yes Yes
2010XC25 O C H 2010-12-15.28655 1.000E-05 09:14:06.280 1.500E-01 0.500 F 0.037 0.769 +21° 42' 09.30" 1.000E-01 0.500 F 0.289 -0.215 o 691 1.63 Yes No
2010XC25 O C H 2010-12-15.28987 1.000E-05 09:14:07.260 1.500E-01 0.500 F 0.037 1.765 +21° 42' 04.70" 1.000E-01 0.500 F 0.289 -0.933 o 691 3.92 No No
2010XC25 O C H 2010-12-15.29353 1.000E-05 09:14:08.210 1.500E-01 0.500 F 0.037 1.055 +21° 42' 00.00" 1.000E-01 0.500 F 0.289 -1.350 o 691 3.37 No No
2010XE25 O C H 2010-12-15.31857 1.000E-05 09:14:10.470 1.500E-01 0.500 F 0.126 0.332 +07° 30' 02.60" 1.000E-01 0.500 F 0.171 -1.032 o 691 2.31 Yes No
2010XE25 O C H 2010-12-15.32164 1.000E-05 09:14:11.050 1.500E-01 0.500 F 0.126 0.730 +07° 29' 48.30" 1.000E-01 0.500 F 0.171 -1.066 o 691 2.79 Yes No
2010XE25 O C H 2010-12-15.32503 1.000E-05 09:14:11.570 1.500E-01 0.500 F 0.126 -0.612 +07° 29' 34.60" 1.000E-01 0.500 F 0.171 0.989 o 691 2.50 Yes No
2010XO56 O C t 2010-12-15.36036 1.000E-05 10:28:54.070 1.500E-01 0.500 F 0.165 0.538 +00° 48' 33.30" 1.000E-01 0.500 F 0.172 -0.579 21.3 V 0.70 1.96 o 691 1.64 Yes No
2010XO56 O C t 2010-12-15.36391 1.000E-05 10:28:53.740 1.500E-01 0.500 F 0.165 0.873 +00° 47' 52.90" 1.000E-01 0.500 F 0.172 -1.828 21.7 V 0.70 2.36 o 691 3.90 No No
1999PJ1 O C 2010-12-15.39433 1.000E-05 11:50:00.200 1.500E-01 0.500 F 0.157 -0.339 +16° 05' 16.10" 1.000E-01 0.500 F 0.202 0.439 20.6 V 0.70 0.22 o 691 1.12 Yes Yes
1999PJ1 O C 2010-12-15.39751 1.000E-05 11:50:00.250 1.500E-01 0.500 F 0.157 -0.022 +16° 05' 10.90" 1.000E-01 0.500 F 0.202 -0.043 20.6 V 0.70 0.22 o 691 0.10 Yes Yes
1999PJ1 O C 2010-12-15.40087 1.000E-05 11:50:00.240 1.500E-01 0.500 F 0.157 -0.588 +16° 05' 06.10" 1.000E-01 0.500 F 0.202 0.142 20.8 V 0.70 0.42 o 691 1.22 Yes Yes
2010VX39 O C H 2010-12-15.41774 1.000E-05 12:19:56.780 1.500E-01 0.500 F 0.132 -0.289 +12° 25' 55.60" 1.000E-01 0.500 F 0.200 -0.529 o 691 1.23 Yes No
2010VX39 O C H 2010-12-15.42093 1.000E-05 12:19:57.600 1.500E-01 0.500 F 0.132 1.320 +12° 25' 55.70" 1.000E-01 0.500 F 0.200 -0.132 o 691 2.70 Yes No
2010VX39 O C H 2010-12-15.42432 1.000E-05 12:19:58.290 1.500E-01 0.500 F 0.132 0.380 +12° 25' 54.90" 1.000E-01 0.500 F 0.200 -0.615 o 691 1.47 Yes No
2002KL3 O C 2010-12-15.44736 1.000E-05 13:12:48.770 1.500E-01 0.500 F 0.159 -0.559 +22° 11' 18.00" 1.000E-01 0.500 F 0.167 -0.046 19.7 V 0.70 0.61 o 691 1.15 Yes Yes
2002KL3 O C 2010-12-15.45186 1.000E-05 13:12:48.330 1.500E-01 0.500 F 0.159 0.154 +22° 11' 37.90" 1.000E-01 0.500 F 0.167 -0.179 19.9 V 0.70 0.81 o 691 0.49 Yes Yes
2002KL3 O C 2010-12-15.45522 1.000E-05 13:12:47.930 1.500E-01 0.500 F 0.159 -0.297 +22° 11' 53.40" 1.000E-01 0.500 F 0.167 0.366 19.8 V 0.70 0.71 o 691 0.97 Yes Yes
2002RB126 O C H 2010-12-15.46476 1.000E-05 13:14:30.900 1.500E-01 0.500 F 0.106 0.669 +18° 54' 05.80" 1.000E-01 0.500 F 0.212 -1.002 o 691 2.48 Yes No
2002RB126 O C H 2010-12-15.46811 1.000E-05 13:14:32.270 1.500E-01 0.500 F 0.106 -0.964 +18° 53' 55.80" 1.000E-01 0.500 F 0.212 0.036 o 691 1.95 Yes No
2002RB126 O C H 2010-12-15.47128 1.000E-05 13:14:33.780 1.500E-01 0.500 F 0.106 0.525 +18° 53' 44.40" 1.000E-01 0.500 F 0.212 -0.917 o 691 2.17 Yes No
1999JV6 O C H 2010-12-24.51435 1.000E-05 12:12:15.440 1.500E-01 0.500 F 0.237 1.025 -04° 18' 59.10" 1.000E-01 0.500 F 0.028 0.174 20.9 V 0.70 0.27 o 691 2.08 Yes Yes
1999JV6 O C H 2010-12-24.52693 1.000E-05 12:12:15.930 1.500E-01 0.500 F 0.237 0.744 -04° 18' 52.40" 1.000E-01 0.500 F 0.028 1.183 20.8 V 0.70 0.17 o 691 2.80 Yes Yes
1999JV6 O C H 2010-12-24.53976 1.000E-05 12:12:16.320 1.500E-01 0.500 F 0.237 -1.154 -04° 18' 47.30" 1.000E-01 0.500 F 0.028 0.468 20.7 V 0.70 0.07 o 691 2.49 Yes Yes
2001FY O C H 2010-12-25.15601 1.000E-05 05:41:03.490 1.500E-01 0.500 F -0.051 0.695 +20° 04' 39.90" 1.000E-01 0.500 F 0.169 0.006 21.3 V 0.70 -0.10 o 691 1.40 Yes Yes
2001FY O C H 2010-12-25.17375 1.000E-05 05:41:01.910 1.500E-01 0.500 F -0.051 1.383 +20° 04' 40.30" 1.000E-01 0.500 F 0.169 -1.497 20.7 V 0.70 -0.70 o 691 4.06 No Yes
2010XJ O C 2010-12-26.08205 1.000E-05 01:45:31.940 1.500E-01 0.500 F -0.076 -0.036 +44° 04' 42.50" 1.000E-01 0.500 F 0.180 0.216 20.9 V 0.70 -0.02 o 691 0.45 Yes Yes
2010XJ O C 2010-12-26.08759 1.000E-05 01:45:31.250 1.500E-01 0.500 F -0.076 -0.071 +44° 04' 43.70" 1.000E-01 0.500 F 0.180 -0.305 20.7 V 0.70 -0.22 o 691 0.64 Yes Yes
2010XJ O C 2010-12-26.09316 1.000E-05 01:45:30.560 1.500E-01 0.500 F -0.076 -0.064 +44° 04' 45.60" 1.000E-01 0.500 F 0.180 -0.125 o 691 0.29 Yes No
2010NW117 O C 2010-12-26.15569 1.000E-05 00:53:01.980 1.500E-01 0.500 F -0.227 -0.333 +05° 54' 34.60" 1.000E-01 0.500 F 0.251 0.078 o 691 0.69 Yes No
2010NW117 O C 2010-12-26.15993 1.000E-05 00:53:03.260 1.500E-01 0.500 F -0.227 -0.275 +05° 54' 40.20" 1.000E-01 0.500 F 0.251 -0.034 19.2 V 0.70 0.45 o 691 0.56 Yes Yes
2010NW117 O C 2010-12-26.16368 1.000E-05 00:53:04.410 1.500E-01 0.500 F -0.227 0.039 +05° 54' 45.20" 1.000E-01 0.500 F 0.251 -0.086 19.2 V 0.70 0.45 o 691 0.19 Yes Yes
2003BH84 O C H 2011-01-08.29098 1.000E-05 07:05:13.720 1.500E-01 0.500 F -0.094 -0.199 +20° 34' 05.20" 1.000E-01 0.500 F 0.133 0.007 20.7 V 0.70 0.86 o 691 0.40 Yes Yes
2003BH84 O C H 2011-01-08.30873 1.000E-05 07:05:11.590 1.500E-01 0.500 F -0.094 -0.775 +20° 34' 01.40" 1.000E-01 0.500 F 0.133 -0.237 20.8 V 0.70 0.96 o 691 1.62 Yes Yes
2010XP51 O C 2011-01-08.34884 1.000E-05 07:33:21.970 1.500E-01 0.500 F -0.019 -0.015 +20° 53' 55.10" 1.000E-01 0.500 F 0.243 -0.286 19.4 V 0.70 1.36 o 691 0.58 Yes Yes
2004EW9 O C H 2011-01-08.35157 1.000E-05 07:13:41.290 1.500E-01 0.500 F -0.053 0.034 +22° 46' 57.00" 1.000E-01 0.500 F 0.252 -0.400 20.4 V 0.70 0.12 o 691 0.80 Yes Yes
2010XP51 O C 2011-01-08.36661 1.000E-05 07:33:21.130 1.500E-01 0.500 F -0.019 -0.144 +20° 54' 31.70" 1.000E-01 0.500 F 0.243 0.026 18.3 V 0.70 0.27 o 691 0.30 Yes Yes
2004EW9 O C H 2011-01-08.36932 1.000E-05 07:13:39.770 1.500E-01 0.500 F -0.053 -0.131 +22° 46' 58.00" 1.000E-01 0.500 F 0.252 0.128 20.3 V 0.70 0.02 o 691 0.37 Yes Yes
2010LR68 O C 2011-01-08.40085 1.000E-05 07:44:32.460 1.500E-01 0.500 F -0.089 -0.077 +20° 13' 15.10" 1.000E-01 0.500 F 0.314 0.184 17.7 V 0.70 -0.31 o 691 0.40 Yes Yes
2010WB9 O C 2011-01-08.40581 1.000E-05 07:57:19.640 1.500E-01 0.500 F -0.036 -0.536 +20° 48' 28.80" 1.000E-01 0.500 F 0.234 -0.187 21.0 V 0.70 0.32 o 691 1.23 Yes Yes
2010LR68 O C 2011-01-08.41862 1.000E-05 07:44:31.460 1.500E-01 0.500 F -0.089 -0.167 +20° 13' 27.10" 1.000E-01 0.500 F 0.314 0.327 17.7 V 0.70 -0.31 o 691 0.74 Yes Yes
2010WB9 O C 2011-01-08.42358 1.000E-05 07:57:20.930 1.500E-01 0.500 F -0.036 -0.464 +20° 48' 46.20" 1.000E-01 0.500 F 0.234 0.776 21.1 V 0.70 0.42 o 691 1.95 Yes Yes
2010LR68 O C 2011-01-08.43637 1.000E-05 07:44:30.480 1.500E-01 0.500 F -0.089 -0.088 +20° 13' 38.50" 1.000E-01 0.500 F 0.314 -0.057 17.9 V 0.70 -0.11 o 691 0.21 Yes Yes
2010WB9 O C 2011-01-08.44133 1.000E-05 07:57:22.280 1.500E-01 0.500 F -0.036 0.196 +20° 49' 01.40" 1.000E-01 0.500 F 0.234 -0.238 21.3 V 0.70 0.62 o 691 0.67 Yes Yes
2010JH87 O C H 2011-01-09.19473 1.000E-05 08:13:35.610 1.500E-01 0.500 F 0.017 -1.733 +22° 00' 47.20" 1.000E-01 0.500 F 0.242 0.225 20.9 V 0.70 -0.09 o 691 3.45 No Yes
2010JH87 O C H 2011-01-09.21250 1.000E-05 08:13:32.970 1.500E-01 0.500 F 0.017 0.418 +22° 01' 25.50" 1.000E-01 0.500 F 0.242 0.010 o 691 0.85 Yes No
2006OB5 O C H 2011-01-09.22514 1.000E-05 08:26:46.950 1.500E-01 0.500 F 0.123 0.060 +20° 44' 03.60" 1.000E-01 0.500 F 0.255 -0.893 20.7 V 0.70 -0.31 o 691 1.80 Yes Yes
2010JH87 O C H 2011-01-09.23026 1.000E-05 08:13:30.110 1.500E-01 0.500 F 0.017 -0.422 +22° 02' 04.00" 1.000E-01 0.500 F 0.242 0.050 21.2 V 0.70 0.21 o 691 0.86 Yes Yes
2006OB5 O C H 2011-01-09.24983 1.000E-05 08:26:44.310 1.500E-01 0.500 F 0.123 -0.541 +20° 44' 15.40" 1.000E-01 0.500 F 0.255 2.206 21.3 V 0.70 0.29 o 691 4.52 No Yes
2000UR13 O C H 2011-01-10.20903 1.000E-05 08:04:40.340 1.500E-01 0.500 F 0.006 -0.240 +24° 18' 45.00" 1.000E-01 0.500 F 0.187 0.111 19.6 V 0.70 0.84 o 691 0.53 Yes Yes
2000UR13 O C H 2011-01-10.22680 1.000E-05 08:04:38.860 1.500E-01 0.500 F 0.006 -0.114 +24° 18' 47.20" 1.000E-01 0.500 F 0.187 0.046 19.4 V 0.70 0.64 o 691 0.25 Yes Yes
2001XR31 O C H 2011-01-10.29562 1.000E-05 08:48:43.400 1.500E-01 0.500 F 0.049 -0.158 +18° 37' 39.00" 1.000E-01 0.500 F 0.154 -0.101 20.3 V 0.70 0.79 o 691 0.38 Yes Yes
2000CR101 O C H 2011-01-10.29562 1.000E-05 08:53:30.030 1.500E-01 0.500 F 0.034 -0.248 +19° 05' 18.20" 1.000E-01 0.500 F 0.186 -0.026 19.6 V 0.70 0.53 o 691 0.51 Yes Yes
2001XR31 O C H 2011-01-10.31334 1.000E-05 08:48:41.560 1.500E-01 0.500 F 0.049 -0.047 +18° 37' 36.70" 1.000E-01 0.500 F 0.154 0.061 20.2 V 0.70 0.69 o 691 0.15 Yes Yes
2000CR101 O C H 2011-01-10.31334 1.000E-05 08:53:29.950 1.500E-01 0.500 F 0.034 -0.150 +19° 05' 17.30" 1.000E-01 0.500 F 0.186 -0.030 19.6 V 0.70 0.53 o 691 0.31 Yes Yes
2001XR31 O C H 2011-01-10.33108 1.000E-05 08:48:39.740 1.500E-01 0.500 F 0.049 0.409 +18° 37' 33.90" 1.000E-01 0.500 F 0.154 -0.253 19.9 V 0.70 0.39 o 691 0.96 Yes Yes
2000CR101 O C H 2011-01-10.33108 1.000E-05 08:53:29.860 1.500E-01 0.500 F 0.034 -0.066 +19° 05' 16.30" 1.000E-01 0.500 F 0.186 -0.045 19.7 V 0.70 0.63 o 691 0.16 Yes Yes
2000QN130 O C 2011-01-10.36044 1.000E-05 09:40:15.310 1.500E-01 0.500 F 0.046 0.425 +15° 53' 01.60" 1.000E-01 0.500 F 0.311 0.039 20.2 V 0.70 0.27 o 691 0.86 Yes Yes
2003YS117 O C 2011-01-10.36812 1.000E-05 09:31:56.690 1.500E-01 0.500 F -0.001 -0.291 +13° 49' 08.90" 1.000E-01 0.500 F 0.221 -0.041 19.0 V 0.70 0.15 o 691 0.59 Yes Yes
2000QN130 O C 2011-01-10.37817 1.000E-05 09:40:14.180 1.500E-01 0.500 F 0.046 -0.340 +15° 53' 09.40" 1.000E-01 0.500 F 0.311 -0.055 20.4 V 0.70 0.47 o 691 0.69 Yes Yes
2003YS117 O C 2011-01-10.38584 1.000E-05 09:31:54.130 1.500E-01 0.500 F -0.001 -0.123 +13° 48' 39.80" 1.000E-01 0.500 F 0.221 -0.283 19.3 V 0.70 0.45 o 691 0.62 Yes Yes
2000QN130 O C 2011-01-10.39590 1.000E-05 09:40:13.120 1.500E-01 0.500 F 0.046 -0.065 +15° 53' 17.30" 1.000E-01 0.500 F 0.311 -0.023 20.3 V 0.70 0.37 o 691 0.14 Yes Yes
2003YS117 O C 2011-01-10.40358 1.000E-05 09:31:51.540 1.500E-01 0.500 F -0.001 -0.302 +13° 48' 11.00" 1.000E-01 0.500 F 0.221 -0.140 19.6 V 0.70 0.76 o 691 0.67 Yes Yes
2010YB O C 2011-01-11.34915 1.000E-05 09:44:56.910 1.500E-01 0.500 F 0.103 -0.215 +21° 15' 54.40" 1.000E-01 0.500 F 0.322 0.029 18.6 V 0.70 0.03 o 691 0.44 Yes Yes
2010YB O C 2011-01-11.36691 1.000E-05 09:44:53.090 1.500E-01 0.500 F 0.103 -0.179 +21° 15' 41.80" 1.000E-01 0.500 F 0.322 0.088 18.7 V 0.70 0.13 o 691 0.40 Yes Yes
2010YB O C 2011-01-11.38468 1.000E-05 09:44:49.250 1.500E-01 0.500 F 0.103 -0.289 +21° 15' 28.90" 1.000E-01 0.500 F 0.322 0.018 18.7 V 0.70 0.13 o 691 0.59 Yes Yes
2011AR26 O C 2011-01-11.40591 1.000E-05 10:03:55.120 1.500E-01 0.500 F 0.149 -0.011 +17° 21' 13.70" 1.000E-01 0.500 F 0.254 -0.392 20.6 V 0.70 -0.44 o 691 0.80 Yes Yes
2011AR26 O C 2011-01-11.42364 1.000E-05 10:03:51.930 1.500E-01 0.500 F 0.149 0.489 +17° 20' 59.50" 1.000E-01 0.500 F 0.254 0.125 20.9 V 0.70 -0.14 o 691 1.02 Yes Yes
2011AR26 O C 2011-01-11.44139 1.000E-05 10:03:48.660 1.500E-01 0.500 F 0.149 -0.090 +17° 20' 44.40" 1.000E-01 0.500 F 0.254 -0.193 20.9 V 0.70 -0.14 o 691 0.43 Yes Yes
1999VM40 O C 2011-01-11.44909 1.000E-05 13:38:13.880 1.500E-01 0.500 F 0.076 -0.294 +04° 07' 01.90" 1.000E-01 0.500 F 0.030 -0.099 19.7 V 0.70 -0.09 o 691 0.62 Yes Yes
1999VM40 O C 2011-01-11.46778 1.000E-05 13:38:14.570 1.500E-01 0.500 F 0.076 -0.054 +04° 07' 01.20" 1.000E-01 0.500 F 0.030 0.123 19.6 V 0.70 -0.19 o 691 0.27 Yes Yes
1999VM40 O C 2011-01-11.48647 1.000E-05 13:38:15.230 1.500E-01 0.500 F 0.076 -0.230 +04° 07' 00.30" 1.000E-01 0.500 F 0.030 0.144 19.7 V 0.70 -0.09 o 691 0.54 Yes Yes
Melissabrucker O C 2011-01-11.51106 1.000E-05 14:14:35.600 1.500E-01 0.500 F 0.232 -0.404 -11° 57' 22.80" 1.000E-01 0.500 F 0.009 -0.102 19.8 V 0.70 -0.12 o 691 0.83 Yes Yes
Melissabrucker O C 2011-01-11.52375 1.000E-05 14:14:36.220 1.500E-01 0.500 F 0.232 -0.392 -11° 57' 25.10" 1.000E-01 0.500 F 0.009 0.075 19.8 V 0.70 -0.12 o 691 0.80 Yes Yes
Melissabrucker O C 2011-01-11.53643 1.000E-05 14:14:36.830 1.500E-01 0.500 F 0.232 -0.511 -11° 57' 27.80" 1.000E-01 0.500 F 0.009 -0.154 19.8 V 0.70 -0.12 o 691 1.07 Yes Yes
2011AS26 O C 2011-01-12.23888 1.000E-05 08:16:40.930 1.500E-01 0.500 F -0.053 0.017 +15° 48' 56.20" 1.000E-01 0.500 F 0.145 -0.031 20.2 V 0.70 -0.25 o 691 0.07 Yes Yes
2011AS26 O C 2011-01-12.25662 1.000E-05 08:16:41.950 1.500E-01 0.500 F -0.053 0.054 +15° 48' 35.90" 1.000E-01 0.500 F 0.145 -0.213 20.2 V 0.70 -0.25 o 691 0.46 Yes Yes
2011AS26 O C 2011-01-12.27438 1.000E-05 08:16:42.960 1.500E-01 0.500 F -0.053 0.169 +15° 48' 16.10" 1.000E-01 0.500 F 0.145 0.222 20.3 V 0.70 -0.15 o 691 0.58 Yes Yes
2000QK25 O C 2011-01-12.30569 1.000E-05 08:50:22.550 1.500E-01 0.500 F 0.075 -0.568 +13° 16' 48.20" 1.000E-01 0.500 F 0.130 0.293 o 691 1.29 Yes No
2002AM31 O C H 2011-01-12.31065 1.000E-05 09:02:55.610 1.500E-01 0.500 F -0.053 -0.943 +13° 43' 36.80" 1.000E-01 0.500 F 0.203 0.681 o 691 2.33 Yes No
2000QK25 O C 2011-01-12.32342 1.000E-05 08:50:21.150 1.500E-01 0.500 F 0.075 -0.266 +13° 16' 58.90" 1.000E-01 0.500 F 0.130 -0.070 o 691 0.55 Yes No
1997AP10 O C H 2011-01-12.32838 1.000E-05 09:06:19.420 1.500E-01 0.500 F 0.009 0.294 +14° 10' 11.80" 1.000E-01 0.500 F 0.178 -0.201 o 691 0.71 Yes No
2000QK25 O C 2011-01-12.34118 1.000E-05 08:50:19.750 1.500E-01 0.500 F 0.075 0.110 +13° 17' 09.70" 1.000E-01 0.500 F 0.130 -0.330 o 691 0.70 Yes No
1997AP10 O C H 2011-01-12.34614 1.000E-05 09:06:17.670 1.500E-01 0.500 F 0.009 -0.375 +14° 10' 16.00" 1.000E-01 0.500 F 0.178 -0.095 20.4 V 0.70 0.50 o 691 0.77 Yes Yes
2002AM31 O C H 2011-01-12.34614 1.000E-05 09:02:52.500 1.500E-01 0.500 F -0.053 -0.236 +13° 43' 53.40" 1.000E-01 0.500 F 0.203 0.256 o 691 0.70 Yes No
2000BF19 O C H 2011-01-12.36294 1.000E-05 09:28:27.500 1.500E-01 0.500 F 0.078 0.631 +16° 48' 25.80" 1.000E-01 0.500 F 0.293 -0.792 o 691 2.04 Yes No
2000BF19 O C H 2011-01-12.40187 1.000E-05 09:28:24.330 1.500E-01 0.500 F 0.078 -0.902 +16° 48' 32.40" 1.000E-01 0.500 F 0.293 -0.209 o 691 1.86 Yes No
2001VS78 O C 2011-01-13.08105 1.000E-05 01:56:09.510 1.500E-01 0.500 F -0.209 -0.504 -09° 59' 17.70" 1.000E-01 0.500 F 0.188 -0.118 19.7 V 0.70 -0.24 o 691 1.04 Yes Yes
2001VS78 O C 2011-01-13.09435 1.000E-05 01:56:09.950 1.500E-01 0.500 F -0.209 -0.360 -09° 59' 03.90" 1.000E-01 0.500 F 0.188 -0.092 19.7 V 0.70 -0.24 o 691 0.74 Yes Yes
2001VS78 O C 2011-01-13.10769 1.000E-05 01:56:10.380 1.500E-01 0.500 F -0.209 -0.390 -09° 58' 50.00" 1.000E-01 0.500 F 0.188 -0.013 19.8 V 0.70 -0.14 o 691 0.78 Yes Yes
2006OB5 O C H 2011-01-13.19741 1.000E-05 08:19:53.280 1.500E-01 0.500 F -0.032 0.569 +21° 05' 57.40" 1.000E-01 0.500 F 0.237 -2.672 o 691 5.45 No No
2010WB9 O C H 2011-01-13.20005 1.000E-05 08:03:41.470 1.500E-01 0.500 F -0.040 0.176 +21° 57' 01.00" 1.000E-01 0.500 F 0.224 0.145 21.2 V 0.70 0.35 o 691 0.50 Yes Yes
2006OB5 O C H 2011-01-13.21515 1.000E-05 08:19:51.180 1.500E-01 0.500 F -0.032 -1.677 +21° 06' 05.70" 1.000E-01 0.500 F 0.237 -0.479 21.0 V 0.70 0.12 o 691 3.46 No Yes
2010WB9 O C H 2011-01-13.21778 1.000E-05 08:03:42.440 1.500E-01 0.500 F -0.040 0.509 +21° 57' 15.10" 1.000E-01 0.500 F 0.224 -0.337 21.7 V 0.70 0.85 o 691 1.39 Yes Yes
2006OB5 O C H 2011-01-13.23288 1.000E-05 08:19:49.420 1.500E-01 0.500 F -0.032 0.924 +21° 06' 12.90" 1.000E-01 0.500 F 0.237 0.653 21.3 V 0.70 0.42 o 691 2.28 Yes Yes
2001XR31 O C H 2011-01-13.24412 1.000E-05 08:43:37.630 1.500E-01 0.500 F 0.003 -0.391 +18° 30' 32.00" 1.000E-01 0.500 F 0.094 -0.027 20.2 V 0.70 0.76 o 691 0.79 Yes Yes
2001XR31 O C H 2011-01-13.26183 1.000E-05 08:43:35.710 1.500E-01 0.500 F 0.003 -0.689 +18° 30' 29.20" 1.000E-01 0.500 F 0.094 -0.366 20.0 V 0.70 0.56 o 691 1.56 Yes Yes
2001XR31 O C 2011-01-13.28299 1.000E-05 08:43:33.700 1.500E-01 0.500 F 0.003 3.054 +18° 30' 26.40" 1.000E-01 0.500 F 0.094 -0.201 19.0 V 0.70 -0.44 o 691 6.11 No Yes
2011AK37 O C 2011-01-13.30429 1.000E-05 08:59:09.160 1.500E-01 0.500 F -0.002 -0.057 +11° 40' 55.00" 1.000E-01 0.500 F 0.192 0.523 20.4 V 0.70 0.11 o 691 1.14 Yes Yes
2011KO17 O C 2011-01-13.30947 1.000E-05 08:46:27.920 1.500E-01 0.500 F 0.063 -0.026 +10° 23' 01.00" 1.000E-01 0.500 F 0.196 0.351 20.4 V 0.70 -0.13 o 691 0.73 Yes Yes
2011AK37 O C 2011-01-13.32199 1.000E-05 08:59:16.630 1.500E-01 0.500 F -0.002 0.358 +11° 42' 04.50" 1.000E-01 0.500 F 0.192 0.261 20.5 V 0.70 0.21 o 691 0.97 Yes Yes
2011KO17 O C 2011-01-13.32717 1.000E-05 08:46:27.170 1.500E-01 0.500 F 0.063 -0.069 +10° 22' 52.50" 1.000E-01 0.500 F 0.196 0.158 20.5 V 0.70 -0.03 o 691 0.37 Yes Yes
2011AK37 O C 2011-01-13.33969 1.000E-05 08:59:23.950 1.500E-01 0.500 F -0.002 -0.671 +11° 43' 13.10" 1.000E-01 0.500 F 0.192 -0.423 20.5 V 0.70 0.20 o 691 1.73 Yes Yes
2011KO17 O C 2011-01-13.34487 1.000E-05 08:46:26.400 1.500E-01 0.500 F 0.063 -0.356 +10° 22' 44.00" 1.000E-01 0.500 F 0.196 -0.006 20.5 V 0.70 -0.03 o 691 0.81 Yes Yes
2011AL24 O C 2011-01-13.37102 1.000E-05 09:31:56.450 1.500E-01 0.500 F 0.094 -0.135 +10° 00' 42.20" 1.000E-01 0.500 F 0.183 0.040 20.5 V 0.70 0.15 o 691 0.31 Yes Yes
2011AL24 O C 2011-01-13.38872 1.000E-05 09:31:57.600 1.500E-01 0.500 F 0.094 -0.342 +09° 59' 44.90" 1.000E-01 0.500 F 0.183 0.269 20.3 V 0.70 -0.05 o 691 0.94 Yes Yes
2011AL24 O C 2011-01-13.40643 1.000E-05 09:31:58.770 1.500E-01 0.500 F 0.094 -0.236 +09° 58' 46.60" 1.000E-01 0.500 F 0.183 -0.368 20.3 V 0.70 -0.05 o 691 0.95 Yes Yes
2000QN130 O C 2011-01-13.41268 1.000E-05 09:37:11.610 1.500E-01 0.500 F 0.094 0.040 +16° 15' 57.30" 1.000E-01 0.500 F 0.299 -0.112 20.2 V 0.70 0.30 o 691 0.24 Yes Yes
2000QN130 O C 2011-01-13.43039 1.000E-05 09:37:10.440 1.500E-01 0.500 F 0.094 0.172 +16° 16' 05.30" 1.000E-01 0.500 F 0.299 -0.197 20.3 V 0.70 0.41 o 691 0.52 Yes Yes
2000QN130 O C 2011-01-13.44810 1.000E-05 09:37:09.240 1.500E-01 0.500 F 0.094 -0.142 +16° 16' 13.30" 1.000E-01 0.500 F 0.299 -0.256 20.3 V 0.70 0.41 o 691 0.59 Yes Yes
2010JH87 O C 2011-01-14.17720 1.000E-05 08:00:34.430 1.500E-01 0.500 F 0.028 -0.298 +24° 53' 32.80" 1.000E-01 0.500 F 0.229 0.005 20.3 V 0.70 -0.57 o 691 0.60 Yes Yes
2010JH87 O C 2011-01-14.19672 1.000E-05 08:00:31.320 1.500E-01 0.500 F 0.028 -0.080 +24° 54' 11.90" 1.000E-01 0.500 F 0.229 -0.244 20.6 V 0.70 -0.27 o 691 0.52 Yes Yes
2010JH87 O C 2011-01-14.21621 1.000E-05 08:00:28.150 1.500E-01 0.500 F 0.028 -0.648 +24° 54' 51.80" 1.000E-01 0.500 F 0.229 0.418 20.4 V 0.70 -0.47 o 691 1.56 Yes Yes
2011AL37 O C 2011-01-14.23821 1.000E-05 08:17:16.350 1.500E-01 0.500 F 0.125 -0.034 +10° 56' 10.70" 1.000E-01 0.500 F 0.042 0.034 20.2 V 0.70 -0.16 o 691 0.10 Yes Yes
2011AL37 O C 2011-01-14.25789 1.000E-05 08:17:17.060 1.500E-01 0.500 F 0.125 0.020 +10° 56' 13.70" 1.000E-01 0.500 F 0.042 -0.127 20.2 V 0.70 -0.15 o 691 0.26 Yes Yes
2011AL37 O C 2011-01-14.27759 1.000E-05 08:17:17.730 1.500E-01 0.500 F 0.125 -0.022 +10° 56' 16.60" 1.000E-01 0.500 F 0.042 -0.237 20.2 V 0.70 -0.15 o 691 0.49 Yes Yes
2000CR101 O C 2011-01-14.29101 1.000E-05 08:53:28.140 1.500E-01 0.500 F 0.034 -0.117 +19° 01' 21.50" 1.000E-01 0.500 F 0.187 0.013 19.2 V 0.70 0.30 o 691 0.24 Yes Yes
2000CR101 O C 2011-01-14.31042 1.000E-05 08:53:27.840 1.500E-01 0.500 F 0.034 -0.212 +19° 01' 20.90" 1.000E-01 0.500 F 0.187 -0.044 19.2 V 0.70 0.30 o 691 0.44 Yes Yes
2000CR101 O C 2011-01-14.32975 1.000E-05 08:53:27.540 1.500E-01 0.500 F 0.034 -0.189 +19° 01' 20.20" 1.000E-01 0.500 F 0.187 -0.094 19.2 V 0.70 0.30 o 691 0.43 Yes Yes
2000QN130 O C 2011-01-14.35673 1.000E-05 09:36:11.640 1.500E-01 0.500 F 0.107 -0.219 +16° 23' 12.20" 1.000E-01 0.500 F 0.223 0.045 20.1 V 0.70 0.22 o 691 0.45 Yes Yes
2002AV31 O C 2011-01-14.36500 1.000E-05 09:28:03.050 1.500E-01 0.500 F 0.034 -0.093 +14° 57' 11.00" 1.000E-01 0.500 F 0.298 -0.318 19.3 V 0.70 -0.05 o 691 0.66 Yes Yes
2000QN130 O C 2011-01-14.37605 1.000E-05 09:36:10.330 1.500E-01 0.500 F 0.107 -0.127 +16° 23' 21.20" 1.000E-01 0.500 F 0.223 0.057 20.0 V 0.70 0.12 o 691 0.28 Yes Yes
2002AV31 O C 2011-01-14.38433 1.000E-05 09:28:01.130 1.500E-01 0.500 F 0.034 -0.089 +14° 58' 18.30" 1.000E-01 0.500 F 0.298 -0.081 19.4 V 0.70 0.05 o 691 0.24 Yes Yes
2000QN130 O C 2011-01-14.39535 1.000E-05 09:36:08.960 1.500E-01 0.500 F 0.107 -0.894 +16° 23' 29.50" 1.000E-01 0.500 F 0.223 -0.588 20.3 V 0.70 0.42 o 691 2.14 Yes Yes
2002AV31 O C 2011-01-14.40365 1.000E-05 09:27:59.200 1.500E-01 0.500 F 0.034 -0.214 +14° 59' 25.30" 1.000E-01 0.500 F 0.298 -0.002 19.3 V 0.70 -0.05 o 691 0.43 Yes Yes
2011CG2 O C 2011-01-14.40849 1.000E-05 09:36:17.850 1.500E-01 0.500 F -0.024 -0.366 +13° 07' 03.90" 1.000E-01 0.500 F 0.264 -0.009 19.4 V 0.70 -0.14 o 691 0.73 Yes Yes
2011CG2 O C 2011-01-14.42793 1.000E-05 09:36:17.220 1.500E-01 0.500 F -0.024 -0.360 +13° 06' 49.20" 1.000E-01 0.500 F 0.264 -0.011 19.2 V 0.70 -0.34 o 691 0.72 Yes Yes
2011CG2 O C 2011-01-14.44727 1.000E-05 09:36:16.610 1.500E-01 0.500 F -0.024 -0.188 +13° 06' 34.40" 1.000E-01 0.500 F 0.264 -0.069 19.1 V 0.70 -0.44 o 691 0.40 Yes Yes
2011AL52 O C 2011-01-15.08151 1.000E-05 23:32:40.720 1.500E-01 0.500 F -0.098 -1.241 +06° 59' 42.80" 1.000E-01 0.500 F 0.217 0.644 19.8 V 0.70 -0.10 o 691 2.82 Yes Yes
2011AL52 O C 2011-01-15.08515 1.000E-05 23:32:41.550 1.500E-01 0.500 F -0.098 0.271 +06° 59' 44.60" 1.000E-01 0.500 F 0.217 0.229 20.0 V 0.70 0.10 o 691 0.72 Yes Yes
2011AL52 O C 2011-01-15.08824 1.000E-05 23:32:42.130 1.500E-01 0.500 F -0.098 -0.303 +06° 59' 46.10" 1.000E-01 0.500 F 0.217 -0.151 20.1 V 0.70 0.20 o 691 0.68 Yes Yes
1999JM8 O C H 2011-01-24.17231 1.000E-05 08:46:18.870 1.500E-01 0.500 F -0.024 -0.323 +16° 07' 40.80" 1.000E-01 0.500 F 0.076 0.203 21.3 V 0.70 -0.01 o 691 0.76 Yes Yes
2011AM24 O C 2011-01-24.17975 1.000E-05 09:10:16.520 1.500E-01 0.500 F 0.003 -0.261 +15° 50' 39.40" 1.000E-01 0.500 F 0.154 0.002 o 691 0.53 Yes No
1999JM8 O C H 2011-01-24.19006 1.000E-05 08:46:18.080 1.500E-01 0.500 F -0.024 1.147 +16° 07' 45.70" 1.000E-01 0.500 F 0.076 0.338 21.5 V 0.70 0.19 o 691 2.39 Yes Yes
2011AM24 O C 2011-01-24.19751 1.000E-05 09:10:14.280 1.500E-01 0.500 F 0.003 -0.913 +15° 51' 14.90" 1.000E-01 0.500 F 0.154 -0.099 o 691 1.86 Yes No
2011AM24 O C 2011-01-24.21525 1.000E-05 09:10:12.100 1.500E-01 0.500 F 0.003 -0.493 +15° 51' 49.80" 1.000E-01 0.500 F 0.154 -0.719 o 691 1.75 Yes No

[1-200] [201-400] [401-600] [601-800] [801-1000] [1001-1200] [1201-1400] [1401-1600] [1601-1800] [1801-2000] [2001-2200] [2201-2400] [2401-2600] [2601-2800] [2801-3000] [3001-3200] [3201-3400] [3401-3600] [3601-3800] [3801-4000] [4001-4200] [4201-4400] [4401-4600] [4601-4800] [4801-5000] [5001-5200] [5201-5400] [5401-5600] [5601-5800] [5801-6000] [6001-6200] [6201-6400] [6401-6600] [6601-6800] [6801-7000] [7001-7200] [7201-7400] [7401-7600] [7601-7800] [7801-8000] [8001-8200] [8201-8400] [8401-8600] [8601-8800] [8801-9000] [9001-9200] [9201-9400] [9401-9600] [9601-9800] [9801-10000] [10001-10200] [10201-10400] [10401-10600] [10601-10800] [10801-11000] [11001-11200] [11201-11400] [11401-11600] [11601-11800] [11801-12000] [12001-12200] [12201-12400] [12401-12600] [12601-12800] [12801-13000] [13001-13200] [13201-13400] [13401-13600] [13601-13800] [13801-14000] [14001-14200] [14201-14400] [14401-14600] [14601-14800] [14801-15000] [15001-15200] [15201-15400] [15401-15600] [15601-15800] [15801-16000] [16001-16200] [16201-16400] [16401-16600] [16601-16800] [16801-17000] [17001-17200] [17201-17400] [17401-17600] [17601-17800] [17801-18000] [18001-18200] [18201-18400] [18401-18600] [18601-18800] [18801-19000] [19001-19200] [19201-19400] [19401-19600] [19601-19800] [19801-20000] [20001-20200] [20201-20400] [20401-20600] [20601-20800] [20801-21000] [21001-21200] [21201-21400] [21401-21600] [21601-21800] [21801-22000] [22001-22200] [22201-22400] [22401-22600] [22601-22800] [22801-23000] [23001-23200] [23201-23400] [23401-23600] [23601-23800] [23801-24000] [24001-24200] [24201-24400] [24401-24600] [24601-24800] [24801-25000] [25001-25200] [25201-25400] [25401-25600] [25601-25800] [25801-26000] [26001-26200] [26201-26400] [26401-26600] [26601-26800] [26801-27000] [27001-27200] [27201-27400] [27401-27600] [27601-27800] [27801-28000] [28001-28200] [28201-28400] [28401-28600] [28601-28800] [28801-29000] [29001-29200] [29201-29400] [29401-29600] [29601-29800] [29801-30000] [30001-30200] [30201-30400] [30401-30600] [30601-30800] [30801-31000] [31001-31200] [31201-31400] [31401-31600] [31601-31800] [31801-32000] [32001-32200] [32201-32400] [32401-32600] [32601-32800] [32801-33000] [33001-33200] [33201-33400] [33401-33600] [33601-33800] [33801-34000] [34001-34200] [34201-34400] [34401-34600] [34601-34800] [34801-35000] [35001-35200] [35201-35400] [35401-35600] [35601-35800] [35801-36000] [36001-36200] [36201-36400] [36401-36600] [36601-36800] [36801-37000] [37001-37200] [37201-37400] [37401-37600] [37601-37800] [37801-38000] [38001-38200] [38201-38400] [38401-38600] [38601-38800] [38801-39000] [39001-39200] [39201-39400] [39401-39600] [39601-39800] [39801-40000] [40001-40200] [40201-40400] [40401-40600] [40601-40800] [40801-41000] [41001-41200] [41201-41400] [41401-41600] [41601-41800] [41801-42000] [42001-42200] [42201-42400] [42401-42600] [42601-42800] [42801-43000] [43001-43200] [43201-43400] [43401-43600] [43601-43800] [43801-44000] [44001-44200] [44201-44400] [44401-44600] [44601-44800] [44801-45000] [45001-45200] [45201-45400] [45401-45600] [45601-45800] [45801-46000] [46001-46200] [46201-46400] [46401-46600] [46601-46800] [46801-47000] [47001-47200] [47201-47400] [47401-47600] [47601-47800] [47801-48000] [48001-48200] [48201-48400] [48401-48600] [48601-48800] [48801-49000] [49001-49200] [49201-49400] [49401-49600] [49601-49800] [49801-50000] [50001-50200] [50201-50388]